Time;durP1;ratioP1;P1;durP2;ratioP2;P2;SDS_P1;SDS_P2;PMS_P1;PMS_P2;Temp;Humidity;BMP_temperature;BMP_pressure;BME280_temperature;BME280_humidity;BME280_pressure;Samples;Min_cycle;Max_cycle;Signal;HPM_P1;HPM_P2
2023/08/11 00:01:26;;;;;;;8.33;4.83;;;17.40;99.90;;;;;;6164908;23;20170;-67
2023/08/11 00:03:51;;;;;;;7.03;4.63;;;17.40;99.90;;;;;;6166453;23;20459;-66
2023/08/11 00:06:17;;;;;;;6.73;4.83;;;17.30;99.90;;;;;;6197132;23;20416;-66
2023/08/11 00:08:43;;;;;;;7.07;4.83;;;17.30;99.90;;;;;;6196272;23;20142;-68
2023/08/11 00:11:11;;;;;;;6.20;3.80;;;17.30;99.90;;;;;;6197523;23;20555;-68
2023/08/11 00:13:36;;;;;;;4.73;4.00;;;17.20;99.90;;;;;;6193121;23;20362;-67
2023/08/11 00:16:03;;;;;;;3.87;3.43;;;17.20;99.90;;;;;;6192699;23;20440;-67
2023/08/11 00:18:29;;;;;;;7.10;3.60;;;17.10;99.90;;;;;;6191050;23;20233;-67
2023/08/11 00:20:55;;;;;;;3.40;3.10;;;17.10;99.90;;;;;;6190602;23;20427;-67
2023/08/11 00:23:21;;;;;;;4.40;3.70;;;17.00;99.90;;;;;;6191774;23;20360;-65
2023/08/11 00:25:46;;;;;;;5.33;3.90;;;17.00;99.90;;;;;;6166271;23;20390;-66
2023/08/11 00:28:12;;;;;;;7.37;5.00;;;17.00;99.90;;;;;;6192774;23;20195;-67
2023/08/11 00:30:38;;;;;;;5.50;3.87;;;17.00;99.90;;;;;;6191021;23;20172;-67
2023/08/11 00:33:05;;;;;;;5.63;4.13;;;17.00;99.90;;;;;;6164894;23;20452;-67
2023/08/11 00:35:31;;;;;;;4.60;4.07;;;17.00;99.90;;;;;;6190835;23;20363;-67
2023/08/11 00:38:01;;;;;;;5.87;5.00;;;17.00;99.90;;;;;;6191521;23;20409;-66
2023/08/11 00:40:26;;;;;;;4.57;4.03;;;17.00;99.90;;;;;;6191446;23;20415;-66
2023/08/11 00:42:52;;;;;;;4.60;4.07;;;16.90;99.90;;;;;;6165914;23;20385;-66
2023/08/11 00:45:18;;;;;;;5.60;4.73;;;16.90;99.90;;;;;;6169331;23;20145;-66
2023/08/11 00:47:45;;;;;;;6.73;5.10;;;16.90;99.90;;;;;;6197211;23;20204;-66
2023/08/11 00:50:11;;;;;;;7.37;4.93;;;16.90;99.90;;;;;;6196829;23;20443;-66
2023/08/11 00:52:38;;;;;;;5.90;4.83;;;16.90;99.90;;;;;;6195764;23;20507;-67
2023/08/11 00:55:07;;;;;;;5.23;4.73;;;16.80;99.90;;;;;;6193691;23;20369;-67
2023/08/11 00:57:34;;;;;;;4.47;4.00;;;16.80;99.90;;;;;;6168394;23;20421;-69
2023/08/11 01:00:03;;;;;;;4.73;4.30;;;16.80;99.90;;;;;;6168813;23;20394;-67
2023/08/11 01:02:30;;;;;;;4.80;3.90;;;16.70;99.90;;;;;;6193919;23;20403;-67
2023/08/11 01:04:55;;;;;;;9.00;4.80;;;16.70;99.90;;;;;;6193838;23;20412;-66
2023/08/11 01:07:50;;;;;;;5.70;5.10;;;16.70;99.90;;;;;;6191844;23;20140;-67
2023/08/11 01:10:45;;;;;;;7.53;4.40;;;16.70;99.90;;;;;;6121607;23;20170;-66
2023/08/11 01:13:16;;;;;;;5.37;4.00;;;16.60;99.90;;;;;;6193141;23;20508;-66
2023/08/11 01:16:07;;;;;;;4.97;4.47;;;16.60;99.90;;;;;;6192224;23;20396;-67
2023/08/11 01:18:35;;;;;;;4.93;3.77;;;16.50;99.90;;;;;;6191643;23;20941;-67
2023/08/11 01:21:10;;;;;;;3.03;2.73;;;16.40;99.90;;;;;;6191999;23;20399;-66
2023/08/11 01:23:36;;;;;;;6.17;4.20;;;16.30;99.90;;;;;;6192099;23;20395;-66
2023/08/11 01:26:02;;;;;;;7.00;4.40;;;16.30;99.90;;;;;;6165211;23;20380;-66
2023/08/11 01:28:27;;;;;;;6.50;4.27;;;16.30;99.90;;;;;;6191013;23;20627;-67
2023/08/11 01:30:53;;;;;;;5.77;4.40;;;16.30;99.90;;;;;;6164406;23;20230;-67
2023/08/11 01:33:18;;;;;;;7.57;4.90;;;16.20;99.90;;;;;;6165130;23;20492;-66
2023/08/11 01:35:45;;;;;;;6.30;4.97;;;16.20;99.90;;;;;;6191372;23;20201;-66
2023/08/11 01:38:10;;;;;;;5.30;4.53;;;16.20;99.90;;;;;;6164780;23;20167;-66
2023/08/11 01:40:37;;;;;;;6.00;4.10;;;16.20;99.90;;;;;;6190071;23;20388;-66
2023/08/11 01:43:05;;;;;;;5.13;4.07;;;16.20;99.90;;;;;;6190784;23;20127;-66
2023/08/11 01:45:31;;;;;;;6.93;4.43;;;16.10;99.90;;;;;;6191401;23;20401;-68
2023/08/11 01:47:57;;;;;;;4.40;4.00;;;16.10;99.90;;;;;;6191318;23;20605;-67
2023/08/11 01:50:24;;;;;;;8.50;4.10;;;16.10;99.90;;;;;;6164467;23;20925;-67
2023/08/11 01:52:52;;;;;;;4.53;3.87;;;16.10;99.90;;;;;;6191273;23;20350;-67
2023/08/11 01:55:18;;;;;;;7.27;4.23;;;16.00;99.90;;;;;;6165181;23;20378;-67
2023/08/11 01:57:44;;;;;;;4.83;4.10;;;16.00;99.90;;;;;;6165074;23;20581;-67
2023/08/11 02:00:13;;;;;;;4.47;3.73;;;16.00;99.90;;;;;;6164090;23;20175;-67
2023/08/11 02:02:42;;;;;;;7.53;4.00;;;16.00;99.90;;;;;;6190394;23;20331;-66
2023/08/11 02:05:11;;;;;;;4.97;3.97;;;16.00;99.90;;;;;;6164197;23;20455;-65
2023/08/11 02:07:40;;;;;;;4.40;3.90;;;15.90;99.90;;;;;;6164830;23;20446;-67
2023/08/11 02:10:09;;;;;;;6.30;4.00;;;15.90;99.90;;;;;;6190816;23;20428;-67
2023/08/11 02:12:41;;;;;;;9.70;4.13;;;15.90;99.90;;;;;;6189861;23;20389;-69
2023/08/11 02:15:08;;;;;;;5.30;4.30;;;15.90;99.90;;;;;;6164065;23;20378;-67
2023/08/11 02:17:34;;;;;;;6.10;3.40;;;15.90;99.90;;;;;;6165472;23;20417;-66
2023/08/11 02:20:08;;;;;;;5.00;3.40;;;15.90;99.90;;;;;;6190319;23;20378;-66
2023/08/11 02:22:33;;;;;;;6.93;4.70;;;15.90;99.90;;;;;;6190363;23;20395;-66
2023/08/11 02:24:59;;;;;;;4.30;3.90;;;15.90;99.90;;;;;;6164384;23;20393;-68
2023/08/11 02:27:25;;;;;;;7.17;3.50;;;15.90;99.90;;;;;;6190773;23;20251;-67
2023/08/11 02:29:51;;;;;;;4.83;4.23;;;15.80;99.90;;;;;;6189467;23;20158;-67
2023/08/11 02:32:19;;;;;;;5.77;4.20;;;15.80;99.90;;;;;;6189681;23;20150;-67
2023/08/11 02:34:46;;;;;;;6.70;3.27;;;15.80;99.90;;;;;;6190187;23;20359;-66
2023/08/11 02:37:13;;;;;;;8.93;4.80;;;15.70;99.90;;;;;;6190356;23;20552;-67
2023/08/11 02:39:38;;;;;;;5.30;4.00;;;15.70;99.90;;;;;;6189729;23;20806;-66
2023/08/11 02:42:04;;;;;;;5.00;3.97;;;15.70;99.90;;;;;;6190313;23;20194;-67
2023/08/11 02:44:30;;;;;;;6.87;3.83;;;15.70;99.90;;;;;;6164286;23;20201;-67
2023/08/11 02:46:56;;;;;;;4.53;3.80;;;15.70;99.90;;;;;;6166687;23;20381;-66
2023/08/11 02:49:23;;;;;;;4.50;3.73;;;15.70;99.90;;;;;;6192849;23;20441;-66
2023/08/11 02:51:48;;;;;;;5.63;4.30;;;15.60;99.90;;;;;;6164284;23;20147;-67
2023/08/11 02:54:14;;;;;;;6.23;3.27;;;15.60;99.90;;;;;;6164001;23;20695;-66
2023/08/11 02:56:46;;;;;;;4.87;4.27;;;15.60;99.90;;;;;;6163801;23;20146;-67
2023/08/11 02:59:11;;;;;;;5.80;3.63;;;15.50;99.90;;;;;;6189145;23;20135;-67
2023/08/11 03:01:37;;;;;;;4.67;3.70;;;15.50;99.90;;;;;;6163687;23;20381;-68
2023/08/11 03:04:02;;;;;;;4.23;3.83;;;15.50;99.90;;;;;;6190356;23;20162;-67
2023/08/11 03:06:28;;;;;;;5.50;3.73;;;15.50;99.90;;;;;;6189934;23;20146;-68
2023/08/11 03:08:54;;;;;;;4.63;3.63;;;15.50;99.90;;;;;;6163656;23;20424;-67
2023/08/11 03:11:19;;;;;;;6.00;3.53;;;15.50;99.90;;;;;;6190429;23;20170;-67
2023/08/11 03:13:45;;;;;;;9.17;4.07;;;15.50;99.90;;;;;;6163157;23;20147;-67
2023/08/11 03:16:11;;;;;;;4.83;4.00;;;15.40;99.90;;;;;;6164480;23;20158;-67
2023/08/11 03:18:37;;;;;;;5.67;3.80;;;15.40;99.90;;;;;;6164101;23;20461;-66
2023/08/11 03:21:03;;;;;;;4.47;3.40;;;15.40;99.90;;;;;;6164542;23;20229;-67
2023/08/11 03:23:29;;;;;;;4.27;3.87;;;15.40;99.90;;;;;;6163882;23;20771;-68
2023/08/11 03:25:56;;;;;;;5.30;4.20;;;15.40;99.90;;;;;;6164071;23;20246;-68
2023/08/11 03:28:22;;;;;;;5.50;4.00;;;15.40;99.90;;;;;;6163600;23;20385;-67
2023/08/11 03:30:48;;;;;;;4.77;3.53;;;15.40;99.90;;;;;;6162664;23;20428;-68
2023/08/11 03:33:14;;;;;;;6.30;4.60;;;15.40;99.90;;;;;;6164332;23;20390;-66
2023/08/11 03:35:52;;;;;;;5.50;3.90;;;15.40;99.90;;;;;;6165588;23;20829;-67
2023/08/11 03:38:18;;;;;;;5.40;3.00;;;15.40;99.90;;;;;;6191634;23;20406;-67
2023/08/11 03:40:43;;;;;;;8.50;3.50;;;15.50;99.90;;;;;;6189724;23;20159;-67
2023/08/11 03:43:09;;;;;;;4.90;3.30;;;15.50;99.90;;;;;;6163934;23;20147;-67
2023/08/11 03:45:36;;;;;;;4.00;3.23;;;15.40;99.90;;;;;;6165169;23;20131;-67
2023/08/11 03:48:06;;;;;;;5.10;3.40;;;15.40;99.90;;;;;;6167676;23;20446;-68
2023/08/11 03:50:33;;;;;;;5.30;3.87;;;15.40;99.90;;;;;;6167237;23;20405;-67
2023/08/11 03:52:59;;;;;;;4.43;3.40;;;15.40;99.90;;;;;;6167600;23;20423;-66
2023/08/11 03:55:25;;;;;;;3.57;3.27;;;15.50;99.90;;;;;;6141454;23;20378;-67
2023/08/11 03:57:51;;;;;;;6.00;3.93;;;15.50;99.90;;;;;;6166499;23;20186;-64
2023/08/11 04:00:20;;;;;;;3.77;3.47;;;15.50;99.90;;;;;;6164483;23;20196;-67
2023/08/11 04:02:53;;;;;;;4.07;3.20;;;15.50;99.90;;;;;;6190470;23;20380;-69
2023/08/11 04:05:19;;;;;;;4.73;3.53;;;15.50;99.90;;;;;;6159049;23;20522;-67
2023/08/11 04:07:45;;;;;;;5.47;3.20;;;15.50;99.90;;;;;;6160438;23;20696;-67
2023/08/11 04:10:11;;;;;;;3.50;3.20;;;15.50;99.90;;;;;;6160158;23;20169;-66
2023/08/11 04:12:37;;;;;;;4.90;3.77;;;15.50;99.90;;;;;;6159590;23;20190;-67
2023/08/11 04:15:03;;;;;;;5.97;3.07;;;15.50;99.90;;;;;;6158223;23;20237;-67
2023/08/11 04:17:33;;;;;;;7.47;3.67;;;15.50;99.90;;;;;;6159807;23;20441;-67
2023/08/11 04:19:59;;;;;;;4.70;3.50;;;15.50;99.90;;;;;;6158757;23;20386;-66
2023/08/11 04:22:25;;;;;;;5.27;3.70;;;15.50;99.90;;;;;;6158216;23;20386;-67
2023/08/11 04:24:51;;;;;;;6.97;3.70;;;15.50;99.90;;;;;;6134325;23;20371;-68
2023/08/11 04:27:17;;;;;;;5.13;4.20;;;15.50;99.90;;;;;;6158946;23;20437;-67
2023/08/11 04:29:44;;;;;;;4.90;3.60;;;15.50;99.90;;;;;;6159501;23;20213;-67
2023/08/11 04:32:09;;;;;;;7.30;3.23;;;15.50;99.90;;;;;;6160449;23;20355;-67
2023/08/11 04:34:35;;;;;;;4.63;3.90;;;15.60;99.90;;;;;;6160901;23;20611;-68
2023/08/11 04:37:04;;;;;;;4.90;3.97;;;15.60;99.90;;;;;;6160646;23;20139;-67
2023/08/11 04:39:31;;;;;;;7.43;3.80;;;15.60;99.90;;;;;;6159065;23;20171;-67
2023/08/11 04:41:57;;;;;;;4.40;3.50;;;15.70;99.90;;;;;;6160815;23;20744;-66
2023/08/11 04:44:23;;;;;;;7.90;3.80;;;15.60;99.90;;;;;;6165120;23;20435;-72
2023/08/11 04:46:52;;;;;;;6.10;3.90;;;15.70;99.90;;;;;;6145433;23;20390;-70
2023/08/11 04:49:18;;;;;;;4.00;3.23;;;15.70;99.90;;;;;;6137464;23;20152;-67
2023/08/11 04:51:44;;;;;;;4.83;3.33;;;15.80;99.90;;;;;;6142355;23;20495;-70
2023/08/11 04:54:11;;;;;;;9.00;3.70;;;15.80;99.90;;;;;;6139668;23;20315;-68
2023/08/11 04:56:37;;;;;;;4.33;3.27;;;15.80;99.90;;;;;;6160736;23;20383;-68
2023/08/11 04:59:03;;;;;;;4.57;3.57;;;15.90;99.90;;;;;;6134877;23;20418;-67
2023/08/11 05:01:28;;;;;;;5.70;3.30;;;15.90;99.90;;;;;;6161607;23;20422;-68
2023/08/11 05:03:54;;;;;;;5.00;3.90;;;16.00;99.90;;;;;;6166789;23;20159;-67
2023/08/11 05:06:20;;;;;;;4.53;3.10;;;16.00;99.90;;;;;;6168210;23;20517;-68
2023/08/11 05:08:47;;;;;;;4.70;3.30;;;16.10;99.90;;;;;;6161998;23;20148;-67
2023/08/11 05:11:13;;;;;;;6.63;3.20;;;16.10;99.90;;;;;;6162672;23;20250;-67
2023/08/11 05:13:38;;;;;;;4.73;3.60;;;16.20;99.90;;;;;;6163941;23;20363;-69
2023/08/11 05:16:04;;;;;;;6.63;3.30;;;16.20;99.90;;;;;;6164662;23;20177;-67
2023/08/11 05:18:29;;;;;;;4.00;3.23;;;16.30;99.90;;;;;;6161839;23;20178;-68
2023/08/11 05:20:55;;;;;;;7.77;4.60;;;16.30;99.90;;;;;;6162246;23;20163;-68
2023/08/11 05:23:21;;;;;;;3.80;3.00;;;16.40;99.90;;;;;;6113687;23;20161;-68
2023/08/11 05:25:46;;;;;;;6.43;4.00;;;16.40;99.90;;;;;;6164295;23;20137;-68
2023/08/11 05:28:12;;;;;;;4.00;3.03;;;16.50;99.90;;;;;;6164391;23;20207;-69
2023/08/11 05:30:38;;;;;;;6.83;3.30;;;16.80;99.90;;;;;;6162493;23;20174;-67
2023/08/11 05:33:04;;;;;;;6.77;3.60;;;17.30;99.90;;;;;;6164991;23;20163;-69
2023/08/11 05:35:29;;;;;;;3.30;2.70;;;17.70;99.90;;;;;;6164555;23;20378;-67
2023/08/11 05:37:55;;;;;;;4.87;2.90;;;18.20;99.90;;;;;;6165417;23;20424;-72
2023/08/11 05:40:21;;;;;;;6.87;3.50;;;18.50;99.90;;;;;;6165682;23;20502;-70
2023/08/11 05:42:47;;;;;;;4.33;2.87;;;18.80;99.90;;;;;;6166245;23;20413;-68
2023/08/11 05:45:12;;;;;;;5.00;3.30;;;19.20;99.90;;;;;;6167240;23;20202;-70
2023/08/11 05:47:38;;;;;;;4.73;3.33;;;19.40;99.90;;;;;;6169650;23;20158;-69
2023/08/11 05:50:04;;;;;;;5.40;2.57;;;19.80;99.90;;;;;;6164308;23;20201;-70
2023/08/11 05:52:30;;;;;;;4.47;3.30;;;20.00;99.70;;;;;;6166144;23;20143;-69
2023/08/11 05:54:55;;;;;;;8.30;3.93;;;20.20;97.10;;;;;;6166081;23;20377;-68
2023/08/11 05:57:21;;;;;;;3.97;3.10;;;20.40;94.80;;;;;;6165169;23;20187;-69
2023/08/11 05:59:47;;;;;;;3.40;2.43;;;20.60;92.90;;;;;;6165348;23;20214;-70
2023/08/11 06:02:12;;;;;;;5.73;3.70;;;20.70;91.40;;;;;;6166215;23;20402;-68
2023/08/11 06:04:38;;;;;;;3.80;2.90;;;20.80;89.30;;;;;;6165086;23;20239;-69
2023/08/11 06:07:04;;;;;;;7.07;3.77;;;21.00;88.30;;;;;;6164897;23;20135;-68
2023/08/11 06:09:29;;;;;;;5.60;3.13;;;21.20;85.30;;;;;;6167238;23;20425;-69
2023/08/11 06:11:55;;;;;;;5.37;3.00;;;21.30;82.80;;;;;;6166401;23;20260;-68
2023/08/11 06:14:21;;;;;;;5.60;3.77;;;21.40;81.40;;;;;;6165507;23;20182;-70
2023/08/11 06:16:46;;;;;;;6.57;2.90;;;21.40;79.60;;;;;;6141211;23;20152;-69
2023/08/11 06:19:12;;;;;;;5.47;3.10;;;21.40;79.50;;;;;;6166567;23;20219;-70
2023/08/11 06:21:38;;;;;;;5.40;3.40;;;21.20;79.70;;;;;;6167325;23;20183;-70
2023/08/11 06:24:04;;;;;;;4.03;2.77;;;20.80;81.00;;;;;;6169305;23;20787;-69
2023/08/11 06:26:30;;;;;;;3.93;3.10;;;20.50;83.40;;;;;;6170427;23;20176;-68
2023/08/11 06:28:55;;;;;;;6.20;3.50;;;20.10;85.70;;;;;;6167932;23;20167;-70
2023/08/11 06:31:21;;;;;;;3.87;2.70;;;19.90;89.30;;;;;;6145377;23;20182;-69
2023/08/11 06:33:47;;;;;;;4.87;2.77;;;19.80;91.00;;;;;;6173018;23;20132;-72
2023/08/11 06:36:13;;;;;;;4.00;2.73;;;19.70;91.90;;;;;;6145817;23;20156;-71
2023/08/11 06:38:39;;;;;;;4.60;3.03;;;19.70;92.70;;;;;;6143086;23;20483;-69
2023/08/11 06:41:06;;;;;;;5.10;2.97;;;19.70;92.90;;;;;;6141346;23;20548;-70
2023/08/11 06:43:32;;;;;;;5.30;3.00;;;19.60;93.20;;;;;;6142397;23;20383;-68
2023/08/11 06:45:57;;;;;;;4.77;2.87;;;19.60;93.40;;;;;;6173055;23;20358;-70
2023/08/11 06:48:23;;;;;;;4.00;2.77;;;19.60;94.00;;;;;;6173441;23;20139;-69
2023/08/11 06:50:48;;;;;;;4.73;3.13;;;19.60;94.10;;;;;;6174548;23;20174;-71
2023/08/11 06:53:14;;;;;;;7.00;3.90;;;19.70;94.30;;;;;;6173984;23;20142;-69
2023/08/11 06:55:40;;;;;;;5.23;3.17;;;19.80;93.30;;;;;;6148427;23;20156;-69
2023/08/11 06:58:05;;;;;;;7.00;4.40;;;19.90;92.80;;;;;;6148459;23;20191;-70
2023/08/11 07:00:31;;;;;;;4.73;3.60;;;19.90;92.00;;;;;;6124611;23;20279;-71
2023/08/11 07:02:57;;;;;;;5.27;3.70;;;20.00;91.70;;;;;;6151052;23;20281;-70
2023/08/11 07:05:22;;;;;;;6.23;3.67;;;20.10;90.70;;;;;;6126947;23;20194;-69
2023/08/11 07:07:48;;;;;;;7.27;4.00;;;20.40;87.30;;;;;;6146911;23;20132;-69
2023/08/11 07:10:14;;;;;;;4.50;3.50;;;20.60;85.80;;;;;;6119517;23;20163;-70
2023/08/11 07:12:40;;;;;;;6.07;3.20;;;20.70;84.30;;;;;;6145224;23;20136;-70
2023/08/11 07:15:07;;;;;;;7.20;3.57;;;20.70;83.70;;;;;;6170062;23;20366;-69
2023/08/11 07:17:33;;;;;;;4.70;3.40;;;20.70;83.70;;;;;;6146520;23;20215;-70
2023/08/11 07:19:59;;;;;;;7.90;3.10;;;20.50;85.30;;;;;;6168090;23;20369;-72
2023/08/11 07:22:25;;;;;;;5.10;3.43;;;20.50;86.70;;;;;;6171379;23;20136;-70
2023/08/11 07:24:50;;;;;;;6.20;3.63;;;20.40;86.80;;;;;;6172236;23;20134;-70
2023/08/11 07:27:16;;;;;;;4.10;2.97;;;20.40;88.00;;;;;;6171991;23;20489;-71
2023/08/11 07:29:41;;;;;;;4.07;3.20;;;20.30;88.20;;;;;;6167277;23;20605;-71
2023/08/11 07:32:07;;;;;;;6.83;3.50;;;20.30;88.30;;;;;;6169270;23;20147;-71
2023/08/11 07:34:36;;;;;;;4.30;3.30;;;20.30;88.70;;;;;;6171970;23;20148;-72
2023/08/11 07:37:04;;;;;;;4.57;3.67;;;20.30;89.30;;;;;;6176591;23;20366;-74
2023/08/11 07:39:30;;;;;;;4.87;3.00;;;20.30;89.60;;;;;;6150623;23;20671;-73
2023/08/11 07:42:02;;;;;;;7.20;3.33;;;20.40;89.30;;;;;;6172677;23;20362;-71
2023/08/11 07:44:29;;;;;;;4.00;2.90;;;20.50;88.70;;;;;;6121775;23;20406;-71
2023/08/11 07:46:56;;;;;;;7.03;3.27;;;20.50;88.90;;;;;;6167590;23;20438;-72
2023/08/11 07:49:22;;;;;;;9.67;3.60;;;20.50;88.40;;;;;;6146170;23;20442;-70
2023/08/11 07:51:49;;;;;;;4.70;3.70;;;20.60;86.70;;;;;;6168039;23;20347;-71
2023/08/11 07:54:16;;;;;;;4.60;3.30;;;20.70;87.00;;;;;;6165674;23;20379;-69
2023/08/11 07:56:43;;;;;;;5.53;3.90;;;20.70;87.20;;;;;;6164972;23;20389;-69
2023/08/11 07:59:09;;;;;;;4.57;3.00;;;20.80;87.10;;;;;;6142777;23;20423;-73
2023/08/11 08:01:36;;;;;;;4.00;2.70;;;20.80;86.80;;;;;;6140656;23;20357;-69
2023/08/11 08:04:03;;;;;;;4.70;2.90;;;20.90;86.30;;;;;;6144608;23;20390;-74
2023/08/11 08:06:30;;;;;;;6.00;3.23;;;21.10;86.10;;;;;;6145602;23;20382;-71
2023/08/11 08:08:56;;;;;;;5.40;3.17;;;21.10;84.90;;;;;;6144721;23;20401;-71
2023/08/11 08:11:23;;;;;;;3.70;2.77;;;21.20;84.00;;;;;;6171690;23;20387;-69
2023/08/11 08:13:49;;;;;;;3.60;3.30;;;21.30;83.30;;;;;;6169534;23;20147;-70
2023/08/11 08:16:15;;;;;;;6.00;3.30;;;21.40;81.50;;;;;;6118648;23;20374;-70
2023/08/11 08:18:41;;;;;;;6.17;3.60;;;21.50;80.40;;;;;;6172064;23;20442;-72
2023/08/11 08:21:06;;;;;;;4.33;3.00;;;21.60;79.70;;;;;;6170607;23;20281;-71
2023/08/11 08:23:32;;;;;;;5.03;3.40;;;21.70;79.70;;;;;;6123743;23;20151;-71
2023/08/11 08:25:58;;;;;;;3.97;3.23;;;21.80;79.40;;;;;;6120503;23;20211;-73
2023/08/11 08:28:24;;;;;;;4.20;3.23;;;21.90;78.70;;;;;;6171114;23;20144;-71
2023/08/11 08:30:50;;;;;;;3.53;3.20;;;22.00;77.90;;;;;;6144756;23;20174;-71
2023/08/11 08:33:16;;;;;;;4.10;3.50;;;22.00;76.90;;;;;;6172326;23;20831;-71
2023/08/11 08:35:41;;;;;;;3.17;2.80;;;22.10;76.90;;;;;;6145963;23;20200;-70
2023/08/11 08:38:07;;;;;;;3.33;2.90;;;22.20;76.80;;;;;;6144899;23;20579;-73
2023/08/11 08:40:34;;;;;;;4.10;3.20;;;22.30;76.40;;;;;;6124873;23;20482;-72
2023/08/11 08:43:00;;;;;;;8.13;3.07;;;22.40;75.50;;;;;;6170545;23;20151;-70
2023/08/11 08:45:27;;;;;;;4.83;3.27;;;22.50;74.40;;;;;;6171048;23;20818;-73
2023/08/11 08:47:55;;;;;;;4.37;3.17;;;22.50;74.50;;;;;;6172173;23;20375;-71
2023/08/11 08:50:22;;;;;;;4.03;3.07;;;22.60;73.90;;;;;;6170106;23;20399;-72
2023/08/11 08:52:49;;;;;;;6.13;4.00;;;22.70;73.40;;;;;;6146490;23;20362;-71
2023/08/11 08:55:15;;;;;;;5.57;3.73;;;22.80;73.40;;;;;;6173307;23;20366;-71
2023/08/11 08:57:41;;;;;;;5.30;3.40;;;22.90;73.00;;;;;;6175068;23;20438;-71
2023/08/11 09:00:08;;;;;;;4.50;3.10;;;23.00;72.40;;;;;;6146142;23;20394;-74
2023/08/11 09:02:34;;;;;;;4.03;2.53;;;23.00;71.90;;;;;;6173032;23;20132;-72
2023/08/11 09:04:59;;;;;;;5.40;3.20;;;23.20;71.60;;;;;;6147857;23;20406;-73
2023/08/11 09:07:26;;;;;;;4.70;3.00;;;23.30;70.60;;;;;;6171554;23;20378;-70
2023/08/11 09:09:51;;;;;;;4.70;3.03;;;23.30;70.10;;;;;;6128099;23;20186;-71
2023/08/11 09:12:17;;;;;;;6.20;3.50;;;23.50;69.90;;;;;;6176338;23;20395;-73
2023/08/11 09:14:43;;;;;;;6.80;3.30;;;23.50;69.70;;;;;;6150830;23;20152;-73
2023/08/11 09:17:09;;;;;;;4.30;3.30;;;23.60;68.70;;;;;;6128702;23;20198;-73
2023/08/11 09:19:36;;;;;;;4.70;3.37;;;23.70;68.20;;;;;;6175819;23;20403;-70
2023/08/11 09:22:09;;;;;;;4.77;3.30;;;23.80;67.90;;;;;;6176709;23;20143;-71
2023/08/11 09:24:35;;;;;;;3.50;2.90;;;23.80;66.80;;;;;;6095692;23;20384;-74
2023/08/11 09:27:00;;;;;;;4.47;3.53;;;23.90;66.70;;;;;;6093762;23;20381;-71
2023/08/11 09:29:26;;;;;;;5.23;3.50;;;24.00;66.00;;;;;;6065373;23;20168;-71
2023/08/11 09:31:55;;;;;;;5.30;3.13;;;24.10;65.50;;;;;;6092616;23;20152;-72
2023/08/11 09:34:21;;;;;;;3.77;3.37;;;24.20;64.40;;;;;;6095592;23;20156;-76
2023/08/11 09:36:49;;;;;;;4.23;2.93;;;24.30;63.80;;;;;;6127944;23;20408;-75
2023/08/11 09:39:22;;;;;;;4.30;3.50;;;24.30;63.80;;;;;;6178776;23;20452;-77
2023/08/11 09:41:50;;;;;;;5.07;2.93;;;24.50;62.90;;;;;;6124735;23;20384;-77
2023/08/11 09:44:17;;;;;;;5.20;3.60;;;24.50;62.90;;;;;;6125290;23;20395;-76
2023/08/11 09:46:46;;;;;;;4.20;3.33;;;24.70;62.10;;;;;;6128039;23;20379;-77
2023/08/11 09:49:12;;;;;;;3.93;2.50;;;24.70;60.30;;;;;;6098566;23;20371;-72
2023/08/11 09:51:40;;;;;;;5.13;3.80;;;24.90;59.40;;;;;;6120377;23;20380;-71
2023/08/11 09:54:09;;;;;;;4.70;3.10;;;25.00;59.30;;;;;;6146423;23;20356;-72
2023/08/11 09:56:40;;;;;;;5.03;3.70;;;25.10;59.00;;;;;;6121352;23;20379;-72
2023/08/11 09:59:11;;;;;;;5.23;4.10;;;25.10;58.90;;;;;;6122858;23;20438;-73
2023/08/11 10:01:37;;;;;;;8.37;3.67;;;25.30;58.50;;;;;;6122763;23;20387;-72
2023/08/11 10:04:13;;;;;;;5.50;3.33;;;25.30;57.30;;;;;;6145901;23;20423;-74
2023/08/11 10:06:47;;;;;;;5.43;3.63;;;25.30;57.40;;;;;;6123653;23;20155;-73
2023/08/11 10:09:14;;;;;;;3.73;2.33;;;25.40;56.90;;;;;;6146631;23;20394;-73
2023/08/11 10:11:43;;;;;;;5.47;3.37;;;25.40;57.30;;;;;;6124525;23;20359;-71
2023/08/11 10:14:13;;;;;;;5.00;2.97;;;25.50;57.30;;;;;;6205327;23;20362;-70
2023/08/11 10:16:40;;;;;;;3.70;2.40;;;25.60;57.00;;;;;;6154503;23;20384;-73
2023/08/11 10:19:06;;;;;;;3.57;2.70;;;25.70;57.10;;;;;;6208909;23;20409;-73
2023/08/11 10:21:33;;;;;;;5.17;3.47;;;25.80;60.20;;;;;;6183133;23;20158;-72
2023/08/11 10:24:00;;;;;;;3.77;3.47;;;25.90;56.70;;;;;;6179728;23;20358;-73
2023/08/11 10:26:26;;;;;;;9.73;3.00;;;25.90;55.90;;;;;;6157641;23;20406;-72
2023/08/11 10:28:52;;;;;;;5.00;3.50;;;26.00;55.60;;;;;;6204181;23;20370;-73
2023/08/11 10:31:22;;;;;;;4.37;3.10;;;26.10;58.90;;;;;;6179148;23;20462;-73
2023/08/11 10:33:51;;;;;;;8.90;3.77;;;26.10;57.80;;;;;;6205367;23;20371;-71
2023/08/11 10:36:23;;;;;;;4.63;3.20;;;26.10;57.50;;;;;;6209044;23;20350;-73
2023/08/11 10:39:05;;;;;;;4.20;3.40;;;26.20;56.80;;;;;;6162050;23;20500;-71
2023/08/11 10:41:30;;;;;;;3.63;3.23;;;26.30;55.20;;;;;;6177548;23;20457;-70
2023/08/11 10:44:00;;;;;;;3.93;3.53;;;26.30;55.10;;;;;;6207585;23;20370;-73
2023/08/11 10:46:30;;;;;;;4.50;3.37;;;26.40;54.70;;;;;;6180973;23;20182;-72
2023/08/11 10:49:18;;;;;;;5.77;4.10;;;26.50;54.70;;;;;;6181994;23;20382;-70
2023/08/11 10:51:44;;;;;;;5.17;3.77;;;26.60;54.70;;;;;;6206788;23;20370;-73
2023/08/11 10:54:17;;;;;;;4.80;3.80;;;26.60;55.10;;;;;;6182860;23;20401;-72
2023/08/11 10:56:45;;;;;;;5.77;3.63;;;26.70;58.20;;;;;;6180865;23;20396;-71
2023/08/11 10:59:18;;;;;;;4.53;3.77;;;26.90;55.60;;;;;;6156307;23;20398;-71
2023/08/11 11:01:49;;;;;;;4.80;3.40;;;27.00;65.40;;;;;;6207887;23;20388;-70
2023/08/11 11:04:16;;;;;;;5.20;4.67;;;27.00;53.80;;;;;;6155502;23;20366;-71
2023/08/11 11:06:45;;;;;;;5.40;4.03;;;27.00;52.80;;;;;;6156473;23;20421;-72
2023/08/11 11:09:11;;;;;;;3.60;3.30;;;27.10;53.00;;;;;;6177708;23;20381;-71
2023/08/11 11:11:37;;;;;;;4.67;3.67;;;27.20;53.10;;;;;;6156986;23;20374;-70
2023/08/11 11:14:05;;;;;;;5.67;3.50;;;27.30;52.10;;;;;;6206149;23;20401;-73
2023/08/11 11:16:32;;;;;;;4.80;3.57;;;27.40;51.40;;;;;;6157432;23;20153;-72
2023/08/11 11:19:03;;;;;;;3.47;3.13;;;27.50;51.10;;;;;;6181119;23;20417;-74
2023/08/11 11:21:31;;;;;;;3.90;3.40;;;27.50;51.10;;;;;;6186433;23;20401;-73
2023/08/11 11:24:04;;;;;;;5.33;3.10;;;27.60;51.00;;;;;;6186889;23;20354;-72
2023/08/11 11:26:33;;;;;;;4.10;3.70;;;27.60;51.70;;;;;;6158675;23;20345;-72
2023/08/11 11:29:04;;;;;;;4.77;2.83;;;27.70;52.10;;;;;;6180650;23;20373;-70
2023/08/11 11:31:34;;;;;;;6.00;3.60;;;27.70;52.30;;;;;;6147049;23;20525;-73
2023/08/11 11:33:59;;;;;;;4.47;3.40;;;27.70;50.90;;;;;;6156270;23;20363;-73
2023/08/11 11:36:27;;;;;;;3.00;2.70;;;27.80;50.40;;;;;;6129219;23;20422;-72
2023/08/11 11:38:53;;;;;;;5.87;3.27;;;27.90;50.20;;;;;;6132441;23;20748;-72
2023/08/11 11:41:20;;;;;;;4.50;3.83;;;27.80;51.90;;;;;;6156554;23;20395;-73
2023/08/11 11:43:48;;;;;;;4.30;3.33;;;28.00;50.60;;;;;;6132295;23;20421;-72
2023/08/11 11:46:18;;;;;;;4.37;3.60;;;28.10;54.80;;;;;;6132082;23;20379;-71
2023/08/11 11:48:55;;;;;;;4.00;3.37;;;28.20;53.50;;;;;;6181226;23;20366;-74
2023/08/11 11:51:25;;;;;;;3.77;3.40;;;28.10;53.00;;;;;;6104005;23;20481;-73
2023/08/11 11:53:55;;;;;;;4.47;3.50;;;28.20;54.20;;;;;;6154479;23;20434;-73
2023/08/11 11:56:21;;;;;;;4.17;3.10;;;28.10;55.50;;;;;;6125715;23;20402;-71
2023/08/11 11:58:49;;;;;;;3.60;3.30;;;28.30;57.80;;;;;;6172477;23;20471;-71
2023/08/11 12:01:25;;;;;;;5.30;3.13;;;28.30;58.40;;;;;;6150244;23;20406;-72
2023/08/11 12:03:52;;;;;;;3.37;3.07;;;28.40;57.50;;;;;;6153906;23;20367;-73
2023/08/11 12:06:19;;;;;;;3.27;2.90;;;28.40;57.20;;;;;;6179727;23;20333;-73
2023/08/11 12:08:51;;;;;;;3.10;2.80;;;28.40;59.50;;;;;;6150659;23;20410;-73
2023/08/11 12:11:26;;;;;;;3.03;2.73;;;28.30;58.10;;;;;;6175660;23;20465;-72
2023/08/11 12:13:52;;;;;;;3.27;2.97;;;28.40;58.10;;;;;;6211873;23;20407;-73
2023/08/11 12:16:19;;;;;;;3.13;2.23;;;28.50;58.20;;;;;;6238495;23;20433;-71
2023/08/11 12:18:45;;;;;;;7.10;3.90;;;28.60;59.40;;;;;;6207756;23;20715;-72
2023/08/11 12:21:11;;;;;;;4.47;3.53;;;28.50;58.50;;;;;;6236459;23;20384;-72
2023/08/11 12:23:37;;;;;;;4.50;3.37;;;28.60;49.40;;;;;;6207531;23;20181;-73
2023/08/11 12:26:04;;;;;;;3.33;3.03;;;28.70;47.60;;;;;;6235836;23;20345;-73
2023/08/11 12:28:30;;;;;;;4.10;3.70;;;28.80;47.40;;;;;;6159804;23;20374;-73
2023/08/11 12:31:07;;;;;;;3.50;3.20;;;28.90;47.90;;;;;;6209629;23;20475;-72
2023/08/11 12:33:33;;;;;;;4.37;3.00;;;28.90;47.60;;;;;;6235452;23;20359;-73
2023/08/11 12:35:58;;;;;;;4.37;2.90;;;28.90;47.40;;;;;;6188095;23;20388;-72
2023/08/11 12:38:24;;;;;;;4.83;3.00;;;28.90;47.50;;;;;;6211207;23;20163;-73
2023/08/11 12:40:52;;;;;;;6.43;3.47;;;28.90;47.80;;;;;;6183822;23;20570;-72
2023/08/11 12:43:19;;;;;;;6.30;3.80;;;29.10;47.70;;;;;;6213285;23;20357;-72
2023/08/11 12:45:45;;;;;;;3.67;3.37;;;29.10;46.90;;;;;;6235601;23;20395;-72
2023/08/11 12:48:11;;;;;;;3.90;3.20;;;29.00;47.30;;;;;;6212760;23;20566;-72